Time;durP1;ratioP1;P1;durP2;ratioP2;P2;SDS_P1;SDS_P2;PMS_P1;PMS_P2;Temp;Humidity;BMP_temperature;BMP_pressure;BME280_temperature;BME280_humidity;BME280_pressure;Samples;Min_cycle;Max_cycle;Signal;HPM_P1;HPM_P2
2021/06/10 00:00:48;;;;;;;;;;;;;;;13.37;62.57;101278.78;1636627;86;20433;-77
2021/06/10 00:03:15;;;;;;;;;;;;;;;13.35;62.62;101274.91;1636949;86;20110;-77
2021/06/10 00:05:41;;;;;;;;;;;;;;;13.33;62.75;101274.52;1637188;86;20106;-77
2021/06/10 00:08:10;;;;;;;;;;;;;;;13.31;62.83;101277.14;1637979;87;20438;-77
2021/06/10 00:10:38;;;;;;;;;;;;;;;13.30;62.84;101274.57;1637965;87;20700;-77
2021/06/10 00:13:05;;;;;;;;;;;;;;;13.29;62.79;101270.26;1643630;86;20134;-77
2021/06/10 00:15:32;;;;;;;;;;;;;;;13.27;62.88;101274.18;1636743;86;20803;-77
2021/06/10 00:17:59;;;;;;;;;;;;;;;13.22;62.79;101266.47;1636342;86;20136;-77
2021/06/10 00:20:30;;;;;;;;;;;;;;;13.20;62.98;101268.67;1651870;86;20731;-77
2021/06/10 00:22:56;;;;;;;;;;;;;;;13.17;63.03;101265.68;1664958;85;20690;-77
2021/06/10 00:25:23;;;;;;;;;;;;;;;13.15;62.90;101270.01;1664554;85;20403;-76
2021/06/10 00:27:49;;;;;;;;;;;;;;;13.12;63.07;101271.36;1658247;85;20776;-76
2021/06/10 00:30:19;;;;;;;;;;;;;;;13.11;63.17;101277.43;1631354;86;20418;-76
2021/06/10 00:32:47;;;;;;;;;;;;;;;13.06;63.14;101275.78;1637412;86;20436;-76
2021/06/10 00:35:14;;;;;;;;;;;;;;;13.04;63.17;101273.22;1643197;86;20732;-76
2021/06/10 00:37:40;;;;;;;;;;;;;;;13.05;63.19;101273.63;1596391;85;20145;-76
2021/06/10 00:40:07;;;;;;;;;;;;;;;13.04;63.45;101277.11;1543762;92;20149;-76
2021/06/10 00:42:33;;;;;;;;;;;;;;;13.05;63.31;101271.47;1543696;93;20412;-76
2021/06/10 00:45:00;;;;;;;;;;;;;;;13.04;63.28;101268.02;1554161;91;20120;-76
2021/06/10 00:47:26;;;;;;;;;;;;;;;13.06;63.52;101266.26;1590476;89;20748;-76
2021/06/10 00:49:52;;;;;;;;;;;;;;;13.07;63.65;101271.87;1591777;89;20488;-76
2021/06/10 00:52:18;;;;;;;;;;;;;;;13.09;63.60;101265.35;1580023;89;20531;-77
2021/06/10 00:54:50;;;;;;;;;;;;;;;13.08;63.51;101273.58;1579999;90;20453;-77
2021/06/10 00:57:16;;;;;;;;;;;;;;;13.08;63.73;101277.48;1590347;89;20223;-76
2021/06/10 00:59:42;;;;;;;;;;;;;;;13.10;63.79;101278.75;1603481;89;20415;-76
2021/06/10 01:02:14;;;;;;;;;;;;;;;13.10;63.79;101270.96;1581028;88;20428;-76
2021/06/10 01:04:40;;;;;;;;;;;;;;;13.11;63.85;101272.67;1605244;89;20411;-76
2021/06/10 01:07:26;;;;;;;;;;;;;;;13.09;64.08;101268.81;1605213;89;20418;-76
2021/06/10 01:10:03;;;;;;;;;;;;;;;13.09;64.02;101272.70;1590650;89;20700;-76
2021/06/10 01:12:35;;;;;;;;;;;;;;;13.10;64.12;101277.02;1581719;89;20121;-76
2021/06/10 01:15:07;;;;;;;;;;;;;;;13.08;64.01;101280.08;1579972;89;20109;-76
2021/06/10 01:17:40;;;;;;;;;;;;;;;13.07;64.07;101276.20;1578719;90;20120;-76
2021/06/10 01:20:22;;;;;;;;;;;;;;;13.06;64.13;101268.86;1583385;89;20682;-77
2021/06/10 01:23:01;;;;;;;;;;;;;;;13.05;63.99;101270.17;1583131;90;20465;-77
2021/06/10 01:25:37;;;;;;;;;;;;;;;13.02;63.90;101268.48;1579380;91;20097;-76
2021/06/10 01:28:13;;;;;;;;;;;;;;;13.00;64.12;101262.45;1579798;89;20768;-76
2021/06/10 01:30:54;;;;;;;;;;;;;;;12.98;64.12;101255.17;1579943;90;20532;-76
2021/06/10 01:33:25;;;;;;;;;;;;;;;12.96;64.09;101256.07;1579261;90;20767;-76
2021/06/10 01:35:54;;;;;;;;;;;;;;;12.93;64.19;101256.53;1578911;91;20832;-76
2021/06/10 01:38:21;;;;;;;;;;;;;;;12.92;64.20;101253.52;1574472;91;20435;-76
2021/06/10 01:40:48;;;;;;;;;;;;;;;12.91;64.23;101256.14;1578966;91;20143;-76
2021/06/10 01:43:16;;;;;;;;;;;;;;;12.88;63.82;101253.59;1579620;91;20873;-76
2021/06/10 01:45:43;;;;;;;;;;;;;;;12.73;64.20;101251.22;1579254;91;20135;-76
2021/06/10 01:48:09;;;;;;;;;;;;;;;12.72;64.39;101246.47;1586166;89;20139;-76
2021/06/10 01:50:35;;;;;;;;;;;;;;;12.71;64.50;101249.95;1582958;90;20112;-76
2021/06/10 01:53:03;;;;;;;;;;;;;;;12.69;64.37;101250.84;1579943;90;20732;-76
2021/06/10 01:55:29;;;;;;;;;;;;;;;12.66;64.49;101257.37;1587465;90;20547;-76
2021/06/10 01:57:57;;;;;;;;;;;;;;;12.58;63.94;101244.08;1587030;90;20110;-76
2021/06/10 02:00:24;;;;;;;;;;;;;;;12.52;64.10;101244.16;1586017;90;20836;-76
2021/06/10 02:02:52;;;;;;;;;;;;;;;12.51;64.44;101245.04;1587355;90;20098;-76
2021/06/10 02:05:19;;;;;;;;;;;;;;;12.48;64.62;101241.62;1587063;90;20847;-76
2021/06/10 02:07:45;;;;;;;;;;;;;;;12.48;64.61;101242.92;1582066;90;20161;-76
2021/06/10 02:10:13;;;;;;;;;;;;;;;12.49;64.73;101235.56;1591162;89;20759;-76
2021/06/10 02:12:39;;;;;;;;;;;;;;;12.51;64.78;101237.69;1597027;89;20332;-76
2021/06/10 02:15:07;;;;;;;;;;;;;;;12.50;64.61;101234.68;1594471;89;20999;-76
2021/06/10 02:17:35;;;;;;;;;;;;;;;12.44;64.87;101237.39;1572756;89;20096;-76
2021/06/10 02:20:02;;;;;;;;;;;;;;;12.42;64.99;101237.84;1572559;90;20146;-76
2021/06/10 02:22:28;;;;;;;;;;;;;;;12.40;64.94;101236.58;1572700;90;20104;-76
2021/06/10 02:24:54;;;;;;;;;;;;;;;12.36;64.78;101234.05;1572524;90;20250;-76
2021/06/10 02:27:20;;;;;;;;;;;;;;;12.35;65.08;101234.48;1572806;89;21249;-76
2021/06/10 02:29:46;;;;;;;;;;;;;;;12.38;65.21;101242.66;1572750;91;20108;-76
2021/06/10 02:32:12;;;;;;;;;;;;;;;12.40;65.19;101235.28;1575419;89;20149;-76
2021/06/10 02:34:38;;;;;;;;;;;;;;;12.42;65.10;101237.84;1581001;89;20112;-76
2021/06/10 02:37:06;;;;;;;;;;;;;;;12.33;64.64;101239.27;1572783;89;20186;-77
2021/06/10 02:39:41;;;;;;;;;;;;;;;12.31;65.10;101241.02;1572690;90;20137;-77
2021/06/10 02:42:08;;;;;;;;;;;;;;;12.34;65.23;101243.58;1572884;91;20559;-77
2021/06/10 02:44:34;;;;;;;;;;;;;;;12.38;65.39;101238.33;1572940;91;20121;-77
2021/06/10 02:47:04;;;;;;;;;;;;;;;12.40;65.35;101235.72;1593856;89;20110;-77
2021/06/10 02:49:29;;;;;;;;;;;;;;;12.45;65.33;101229.59;1606843;89;20142;-77
2021/06/10 02:51:55;;;;;;;;;;;;;;;12.51;65.43;101228.61;1606999;89;20094;-76
2021/06/10 02:54:22;;;;;;;;;;;;;;;12.53;65.22;101226.41;1601778;89;20153;-76
2021/06/10 02:56:48;;;;;;;;;;;;;;;12.55;65.42;101229.84;1581832;89;20120;-76
2021/06/10 02:59:16;;;;;;;;;;;;;;;12.60;65.40;101222.00;1594067;89;20373;-76
2021/06/10 03:01:49;;;;;;;;;;;;;;;12.60;65.10;101224.16;1595699;89;20150;-76
2021/06/10 03:04:16;;;;;;;;;;;;;;;12.54;65.36;101226.84;1586602;89;20139;-76
2021/06/10 03:06:42;;;;;;;;;;;;;;;12.58;65.38;101228.95;1582391;89;20097;-76
2021/06/10 03:09:13;;;;;;;;;;;;;;;12.59;65.52;101232.81;1590793;89;20106;-76
2021/06/10 03:11:40;;;;;;;;;;;;;;;12.63;65.36;101226.28;1584015;89;20145;-77
2021/06/10 03:14:07;;;;;;;;;;;;;;;12.60;65.23;101234.97;1581882;90;20116;-77
2021/06/10 03:16:35;;;;;;;;;;;;;;;12.65;65.58;101237.06;1586186;90;20112;-77
2021/06/10 03:19:02;;;;;;;;;;;;;;;12.69;65.48;101235.28;1581672;89;20137;-77
2021/06/10 03:21:29;;;;;;;;;;;;;;;12.73;65.63;101230.47;1581822;90;20137;-77
2021/06/10 03:23:56;;;;;;;;;;;;;;;12.80;65.81;101232.94;1598840;89;20143;-77
2021/06/10 03:26:23;;;;;;;;;;;;;;;12.84;65.55;101237.20;1606727;89;20135;-77
2021/06/10 03:28:50;;;;;;;;;;;;;;;12.91;65.80;101248.36;1606911;89;20114;-77
2021/06/10 03:31:30;;;;;;;;;;;;;;;12.99;65.86;101245.64;1606561;86;20106;-77
2021/06/10 03:33:56;;;;;;;;;;;;;;;12.99;65.75;101249.09;1604096;88;20110;-77
2021/06/10 03:36:22;;;;;;;;;;;;;;;13.05;65.87;101259.34;1586176;90;20121;-77
2021/06/10 03:38:53;;;;;;;;;;;;;;;13.06;65.62;101284.87;1582021;89;20160;-77
2021/06/10 03:41:19;;;;;;;;;;;;;;;13.05;65.73;101303.48;1603162;88;20147;-77
2021/06/10 03:43:46;;;;;;;;;;;;;;;13.05;65.64;101303.48;1607078;89;20151;-76
2021/06/10 03:46:20;;;;;;;;;;;;;;;13.08;65.95;101304.73;1603144;88;20244;-76
2021/06/10 03:48:46;;;;;;;;;;;;;;;13.15;65.69;101299.02;1596058;89;20140;-76
2021/06/10 03:51:18;;;;;;;;;;;;;;;13.21;65.85;101306.30;1601048;88;20195;-76
2021/06/10 03:53:48;;;;;;;;;;;;;;;13.31;66.05;101286.67;1631059;87;20191;-76
2021/06/10 03:56:15;;;;;;;;;;;;;;;13.39;65.81;101286.97;1610325;88;20269;-76
2021/06/10 03:58:41;;;;;;;;;;;;;;;13.48;66.01;101293.75;1598947;89;20215;-76
2021/06/10 04:01:08;;;;;;;;;;;;;;;13.58;66.10;101296.13;1595593;89;20180;-76
2021/06/10 04:03:34;;;;;;;;;;;;;;;13.67;66.08;101296.41;1585615;88;20204;-76
2021/06/10 04:06:01;;;;;;;;;;;;;;;13.74;66.24;101293.27;1579787;90;20222;-76
2021/06/10 04:08:28;;;;;;;;;;;;;;;13.84;66.25;101289.17;1619103;88;20204;-76
2021/06/10 04:10:54;;;;;;;;;;;;;;;13.92;66.26;101283.83;1614928;88;20231;-76
2021/06/10 04:13:20;;;;;;;;;;;;;;;14.02;66.47;101281.91;1607614;87;20206;-78
2021/06/10 04:15:46;;;;;;;;;;;;;;;14.12;66.33;101276.91;1566255;89;20195;-78
2021/06/10 04:18:19;;;;;;;;;;;;;;;14.18;66.19;101283.30;1593740;87;20216;-78
2021/06/10 04:20:48;;;;;;;;;;;;;;;14.21;66.31;101286.69;1605314;89;20203;-78
2021/06/10 04:23:14;;;;;;;;;;;;;;;14.29;66.19;101283.08;1607949;88;20123;-78
2021/06/10 04:25:40;;;;;;;;;;;;;;;14.39;66.65;101282.00;1609636;88;20241;-79
2021/06/10 04:28:06;;;;;;;;;;;;;;;14.49;66.47;101284.85;1599886;88;20191;-79
2021/06/10 04:30:33;;;;;;;;;;;;;;;14.58;66.66;101283.32;1613625;88;20174;-79
2021/06/10 04:32:59;;;;;;;;;;;;;;;14.63;66.31;101284.08;1619342;88;20195;-79
2021/06/10 04:35:26;;;;;;;;;;;;;;;14.68;66.47;101286.58;1601789;88;20583;-79
2021/06/10 04:37:52;;;;;;;;;;;;;;;14.75;66.66;101304.64;1606379;88;20191;-79
2021/06/10 04:40:21;;;;;;;;;;;;;;;14.83;66.67;101308.37;1619213;88;20199;-79
2021/06/10 04:42:47;;;;;;;;;;;;;;;14.87;66.54;101303.06;1613360;88;20183;-78
2021/06/10 04:45:13;;;;;;;;;;;;;;;14.83;66.50;101297.95;1610864;88;20246;-78
2021/06/10 04:47:40;;;;;;;;;;;;;;;14.82;66.67;101311.87;1627962;87;20243;-78
2021/06/10 04:50:07;;;;;;;;;;;;;;;14.81;66.71;101314.06;1599628;88;20199;-78
2021/06/10 04:52:33;;;;;;;;;;;;;;;14.78;66.87;101314.98;1617496;88;20140;-78
2021/06/10 04:54:59;;;;;;;;;;;;;;;14.86;67.15;101312.21;1610335;88;20136;-78
2021/06/10 04:57:25;;;;;;;;;;;;;;;14.88;66.76;101301.31;1605947;88;20112;-78
2021/06/10 04:59:51;;;;;;;;;;;;;;;14.89;66.99;101299.98;1605478;88;20178;-78
2021/06/10 05:02:17;;;;;;;;;;;;;;;14.96;67.09;101305.91;1607433;88;20114;-78
2021/06/10 05:04:45;;;;;;;;;;;;;;;15.03;67.00;101307.48;1605491;88;20116;-78
2021/06/10 05:07:11;;;;;;;;;;;;;;;15.08;67.12;101312.10;1611089;88;20188;-78
2021/06/10 05:09:38;;;;;;;;;;;;;;;15.16;67.12;101309.31;1598626;88;20117;-78
2021/06/10 05:12:05;;;;;;;;;;;;;;;15.24;67.15;101314.75;1611337;88;20129;-78
2021/06/10 05:14:31;;;;;;;;;;;;;;;15.28;67.24;101302.95;1607545;88;20123;-78
2021/06/10 05:16:57;;;;;;;;;;;;;;;15.35;67.20;101303.22;1595505;88;20131;-78
2021/06/10 05:19:23;;;;;;;;;;;;;;;15.42;67.09;101307.39;1608790;88;20246;-78
2021/06/10 05:21:49;;;;;;;;;;;;;;;15.43;67.03;101309.95;1603993;88;20132;-78
2021/06/10 05:24:16;;;;;;;;;;;;;;;15.49;67.29;101309.80;1614726;88;20252;-78
2021/06/10 05:26:42;;;;;;;;;;;;;;;15.65;67.26;101312.02;1619860;88;20116;-78
2021/06/10 05:29:09;;;;;;;;;;;;;;;15.84;67.30;101310.65;1610949;88;20212;-78
2021/06/10 05:31:35;;;;;;;;;;;;;;;15.98;66.90;101303.31;1608706;88;20104;-78
2021/06/10 05:34:01;;;;;;;;;;;;;;;15.97;66.78;101303.35;1604335;88;20210;-78
2021/06/10 05:36:27;;;;;;;;;;;;;;;15.95;67.06;101294.72;1623332;88;20206;-78
2021/06/10 05:38:53;;;;;;;;;;;;;;;15.98;66.94;101295.94;1606635;88;20224;-78
2021/06/10 05:41:19;;;;;;;;;;;;;;;16.01;66.97;101291.49;1619995;88;20198;-78
2021/06/10 05:43:44;;;;;;;;;;;;;;;16.04;67.12;101291.41;1603108;88;20195;-78
2021/06/10 05:46:11;;;;;;;;;;;;;;;16.05;67.22;101293.57;1612407;88;20168;-78
2021/06/10 05:48:37;;;;;;;;;;;;;;;16.07;66.91;101288.72;1619685;87;20814;-78
2021/06/10 05:51:06;;;;;;;;;;;;;;;16.03;67.12;101287.54;1609023;88;20550;-78
2021/06/10 05:53:32;;;;;;;;;;;;;;;16.00;67.16;101292.84;1604403;88;20209;-78
2021/06/10 05:55:58;;;;;;;;;;;;;;;16.07;67.42;101282.64;1605493;88;20194;-78
2021/06/10 05:58:24;;;;;;;;;;;;;;;16.14;67.41;101286.31;1592072;89;20249;-78
2021/06/10 06:00:50;;;;;;;;;;;;;;;16.23;67.43;101286.50;1600991;88;20194;-78
2021/06/10 06:03:16;;;;;;;;;;;;;;;16.34;67.55;101287.50;1593648;88;20116;-78
2021/06/10 06:05:42;;;;;;;;;;;;;;;16.45;67.54;101284.13;1618028;88;20201;-78
2021/06/10 06:08:10;;;;;;;;;;;;;;;16.61;67.21;101294.52;1608821;88;20264;-78
2021/06/10 06:10:36;;;;;;;;;;;;;;;16.72;67.47;101296.36;1584134;88;20211;-78
2021/06/10 06:13:03;;;;;;;;;;;;;;;17.07;67.43;101300.94;1585677;88;20268;-78
2021/06/10 06:15:30;;;;;;;;;;;;;;;17.19;67.05;101297.45;1600072;88;20190;-78
2021/06/10 06:17:56;;;;;;;;;;;;;;;17.25;67.10;101287.70;1590214;88;20209;-78
2021/06/10 06:20:23;;;;;;;;;;;;;;;17.38;67.27;101298.16;1596329;88;20175;-78
2021/06/10 06:22:49;;;;;;;;;;;;;;;17.56;67.45;101294.94;1600809;88;20985;-78
2021/06/10 06:25:16;;;;;;;;;;;;;;;18.00;67.64;101304.31;1603644;88;20133;-78
2021/06/10 06:27:42;;;;;;;;;;;;;;;18.67;67.79;101300.52;1604969;88;20134;-78
2021/06/10 06:30:10;;;;;;;;;;;;;;;19.03;67.07;101303.44;1613802;88;20109;-78
2021/06/10 06:32:36;;;;;;;;;;;;;;;19.39;67.39;101308.47;1608143;88;20126;-78
2021/06/10 06:35:07;;;;;;;;;;;;;;;20.02;67.17;101309.73;1584298;88;20116;-78
2021/06/10 06:37:34;;;;;;;;;;;;;;;20.56;66.86;101306.85;1596349;88;20103;-79
2021/06/10 06:40:00;;;;;;;;;;;;;;;21.13;66.12;101294.85;1609025;86;20131;-78
2021/06/10 06:42:26;;;;;;;;;;;;;;;21.62;65.73;101294.19;1598589;88;20570;-78
2021/06/10 06:44:52;;;;;;;;;;;;;;;22.04;65.22;101293.75;1601321;88;20115;-79
2021/06/10 06:47:18;;;;;;;;;;;;;;;22.17;64.94;101293.48;1613905;88;20115;-79
2021/06/10 06:49:44;;;;;;;;;;;;;;;22.34;65.39;101294.75;1596633;88;20225;-79
2021/06/10 06:52:10;;;;;;;;;;;;;;;22.73;65.16;101291.69;1607878;88;20107;-79
2021/06/10 06:54:37;;;;;;;;;;;;;;;23.26;65.07;101292.21;1605723;88;20116;-79
2021/06/10 06:57:04;;;;;;;;;;;;;;;23.78;64.87;101290.46;1606265;88;20131;-79
2021/06/10 06:59:30;;;;;;;;;;;;;;;24.21;64.47;101286.86;1619118;88;20127;-79
2021/06/10 07:01:56;;;;;;;;;;;;;;;24.63;64.17;101301.83;1616646;87;20100;-79
2021/06/10 07:04:23;;;;;;;;;;;;;;;24.75;63.44;101289.14;1627449;88;20115;-79
2021/06/10 07:06:49;;;;;;;;;;;;;;;24.49;63.38;101299.20;1620077;87;20106;-79
2021/06/10 07:09:14;;;;;;;;;;;;;;;24.22;63.49;101300.92;1601485;88;20253;-79
2021/06/10 07:11:40;;;;;;;;;;;;;;;23.93;63.45;101305.34;1621715;88;20175;-79
2021/06/10 07:14:07;;;;;;;;;;;;;;;23.76;63.62;101303.76;1613506;88;20181;-79
2021/06/10 07:16:33;;;;;;;;;;;;;;;24.01;63.70;101311.02;1605493;88;20131;-79
2021/06/10 07:18:58;;;;;;;;;;;;;;;24.08;63.52;101309.23;1616378;88;20195;-79
2021/06/10 07:21:25;;;;;;;;;;;;;;;24.04;63.39;101305.08;1628526;87;20171;-79
2021/06/10 07:23:50;;;;;;;;;;;;;;;24.32;63.46;101309.55;1600369;87;20183;-79
2021/06/10 07:26:16;;;;;;;;;;;;;;;24.82;63.27;101300.17;1608816;88;20190;-79
2021/06/10 07:28:43;;;;;;;;;;;;;;;25.20;63.15;101306.09;1611710;88;20587;-79
2021/06/10 07:31:09;;;;;;;;;;;;;;;25.42;63.06;101309.48;1609987;88;20202;-79
2021/06/10 07:33:35;;;;;;;;;;;;;;;25.46;62.95;101309.18;1614469;88;20191;-79
2021/06/10 07:36:01;;;;;;;;;;;;;;;25.64;63.01;101313.71;1601904;88;20207;-79
2021/06/10 07:38:27;;;;;;;;;;;;;;;26.01;63.24;101310.20;1610558;88;20298;-79
2021/06/10 07:40:53;;;;;;;;;;;;;;;26.40;62.63;101315.02;1610378;88;20394;-79
2021/06/10 07:43:19;;;;;;;;;;;;;;;26.58;62.63;101310.18;1600879;87;20317;-79
2021/06/10 07:45:45;;;;;;;;;;;;;;;26.85;62.23;101300.22;1602510;88;20194;-79
2021/06/10 07:48:11;;;;;;;;;;;;;;;26.98;61.95;101307.69;1597761;87;20192;-79
2021/06/10 07:50:37;;;;;;;;;;;;;;;27.22;61.49;101309.45;1610433;88;20453;-79
2021/06/10 07:53:04;;;;;;;;;;;;;;;27.39;61.10;101310.84;1595513;88;20169;-79
2021/06/10 07:55:31;;;;;;;;;;;;;;;27.50;60.56;101309.07;1598598;88;20129;-79
2021/06/10 07:58:00;;;;;;;;;;;;;;;27.54;60.50;101311.02;1600242;88;20197;-79
2021/06/10 08:00:25;;;;;;;;;;;;;;;27.50;60.27;101306.41;1603434;88;20705;-79
2021/06/10 08:02:57;;;;;;;;;;;;;;;27.50;60.14;101306.41;1600104;88;20195;-80
2021/06/10 08:05:18;;;;;;;;;;;;;;;27.64;59.96;101306.21;1600320;88;20765;-80
2021/06/10 08:07:44;;;;;;;;;;;;;;;27.59;59.38;101304.39;1604576;88;20105;-80
2021/06/10 08:10:12;;;;;;;;;;;;;;;27.66;59.49;101302.11;1603275;88;20101;-80
2021/06/10 08:12:38;;;;;;;;;;;;;;;27.70;59.19;101299.58;1611345;88;20103;-80
2021/06/10 08:15:05;;;;;;;;;;;;;;;27.75;59.07;101301.88;1601671;88;20114;-80
2021/06/10 08:17:35;;;;;;;;;;;;;;;27.79;58.73;101300.68;1605571;88;20112;-80
2021/06/10 08:19:59;;;;;;;;;;;;;;;28.00;58.58;101298.53;1618975;87;20419;-80
2021/06/10 08:22:26;;;;;;;;;;;;;;;28.13;58.09;101300.20;1600518;88;20182;-80
2021/06/10 08:24:52;;;;;;;;;;;;;;;28.15;57.82;101300.44;1608408;88;20189;-80
2021/06/10 08:27:18;;;;;;;;;;;;;;;28.22;57.38;101296.36;1592609;88;20181;-80
2021/06/10 08:29:43;;;;;;;;;;;;;;;28.21;57.37;101298.66;1599339;88;20852;-80
2021/06/10 08:32:09;;;;;;;;;;;;;;;28.24;57.23;101302.41;1598762;88;20198;-80
2021/06/10 08:34:35;;;;;;;;;;;;;;;28.13;56.85;101299.72;1610500;88;20238;-80
2021/06/10 08:37:01;;;;;;;;;;;;;;;28.10;57.10;101301.28;1593240;88;20148;-80
2021/06/10 08:39:28;;;;;;;;;;;;;;;27.88;56.22;101297.31;1616404;88;20112;-80
2021/06/10 08:41:55;;;;;;;;;;;;;;;27.72;56.28;101285.69;1615227;88;20123;-80
2021/06/10 08:44:23;;;;;;;;;;;;;;;27.66;56.25;101294.13;1602106;88;20112;-80
2021/06/10 08:46:50;;;;;;;;;;;;;;;27.56;55.86;101292.62;1593012;88;20118;-80
2021/06/10 08:49:17;;;;;;;;;;;;;;;27.41;55.77;101292.50;1617895;87;20100;-80
2021/06/10 08:51:43;;;;;;;;;;;;;;;27.41;55.75;101292.98;1616611;88;20403;-80
2021/06/10 08:54:09;;;;;;;;;;;;;;;27.38;55.49;101290.56;1610997;88;20092;-80
2021/06/10 08:56:37;;;;;;;;;;;;;;;27.65;55.76;101291.11;1615410;88;20785;-80
2021/06/10 08:59:02;;;;;;;;;;;;;;;28.08;54.86;101293.91;1620893;88;20112;-80
2021/06/10 09:01:30;;;;;;;;;;;;;;;28.55;54.80;101291.49;1617536;87;20158;-80
2021/06/10 09:03:56;;;;;;;;;;;;;;;29.00;54.42;101286.05;1610859;88;20137;-80
2021/06/10 09:06:22;;;;;;;;;;;;;;;29.48;54.03;101279.77;1618282;88;20108;-80
2021/06/10 09:08:51;;;;;;;;;;;;;;;29.84;53.61;101283.73;1612041;87;20199;-80
2021/06/10 09:11:22;;;;;;;;;;;;;;;30.19;53.43;101274.48;1593835;88;20202;-80
2021/06/10 09:13:55;;;;;;;;;;;;;;;30.59;53.09;101278.50;1612750;88;20200;-80
2021/06/10 09:16:35;;;;;;;;;;;;;;;30.70;53.01;101269.48;1614254;87;20231;-81
2021/06/10 09:19:07;;;;;;;;;;;;;;;30.70;52.47;101266.81;1591350;88;20161;-81
2021/06/10 09:21:38;;;;;;;;;;;;;;;30.57;52.59;101267.95;1609797;88;20114;-81
2021/06/10 09:24:22;;;;;;;;;;;;;;;30.39;52.64;101272.23;1610179;88;20140;-80
2021/06/10 09:27:07;;;;;;;;;;;;;;;29.95;52.27;101266.31;1603650;88;20094;-80
2021/06/10 09:29:42;;;;;;;;;;;;;;;29.40;52.78;101264.03;1606639;88;20116;-80
2021/06/10 09:32:19;;;;;;;;;;;;;;;28.82;52.81;101263.11;1626865;88;20116;-80
2021/06/10 09:34:55;;;;;;;;;;;;;;;28.26;51.71;101265.89;1606909;88;20136;-80
2021/06/10 09:37:37;;;;;;;;;;;;;;;27.75;51.50;101263.34;1595344;88;20114;-80
2021/06/10 09:40:07;;;;;;;;;;;;;;;27.40;51.35;101268.71;1608528;87;20142;-80
2021/06/10 09:42:35;;;;;;;;;;;;;;;27.17;50.98;101265.13;1603046;88;20128;-81
2021/06/10 09:45:04;;;;;;;;;;;;;;;26.76;50.77;101262.89;1622291;87;20116;-81
2021/06/10 09:47:40;;;;;;;;;;;;;;;26.52;50.67;101262.88;1612705;87;20134;-81
2021/06/10 09:50:28;;;;;;;;;;;;;;;26.47;50.68;101259.73;1596333;88;20442;-80
2021/06/10 09:53:10;;;;;;;;;;;;;;;26.46;50.21;101256.72;1606957;88;20420;-80
2021/06/10 09:55:49;;;;;;;;;;;;;;;26.34;50.14;101253.14;1616444;88;20113;-80
2021/06/10 09:58:18;;;;;;;;;;;;;;;26.29;49.57;101250.78;1597487;88;20854;-81
2021/06/10 10:00:53;;;;;;;;;;;;;;;26.14;49.32;101251.03;1591292;88;20110;-80
2021/06/10 10:03:32;;;;;;;;;;;;;;;25.90;49.22;101243.03;1607090;88;20099;-80
2021/06/10 10:06:06;;;;;;;;;;;;;;;25.79;49.34;101237.16;1584415;88;20113;-80
2021/06/10 10:08:33;;;;;;;;;;;;;;;25.72;49.15;101247.33;1603463;88;20116;-80
2021/06/10 10:11:01;;;;;;;;;;;;;;;25.65;48.94;101244.73;1590554;89;20752;-80
2021/06/10 10:13:28;;;;;;;;;;;;;;;25.56;48.81;101240.04;1614284;88;20431;-80
2021/06/10 10:15:56;;;;;;;;;;;;;;;25.52;48.75;101240.35;1592560;88;20116;-80
2021/06/10 10:18:23;;;;;;;;;;;;;;;25.48;48.62;101240.19;1603660;88;20870;-80
2021/06/10 10:20:49;;;;;;;;;;;;;;;25.33;48.52;101240.78;1598148;88;20143;-80
2021/06/10 10:23:15;;;;;;;;;;;;;;;25.30;48.40;101235.22;1601184;88;20116;-80
2021/06/10 10:25:42;;;;;;;;;;;;;;;25.24;48.26;101240.93;1598080;88;20161;-80
2021/06/10 10:28:10;;;;;;;;;;;;;;;25.19;48.17;101229.80;1596572;88;20206;-80
2021/06/10 10:30:39;;;;;;;;;;;;;;;25.17;48.06;101236.15;1597536;88;20128;-80
2021/06/10 10:33:16;;;;;;;;;;;;;;;25.16;48.09;101227.36;1613350;88;20171;-80
2021/06/10 10:35:51;;;;;;;;;;;;;;;25.16;48.00;101217.25;1587720;88;20152;-80
2021/06/10 10:38:21;;;;;;;;;;;;;;;25.20;48.00;101224.88;1604793;88;20165;-80
2021/06/10 10:40:59;;;;;;;;;;;;;;;25.26;47.74;101230.23;1604125;87;20215;-80
2021/06/10 10:43:27;;;;;;;;;;;;;;;25.18;47.30;101229.91;1601370;88;20141;-80
2021/06/10 10:46:21;;;;;;;;;;;;;;;25.08;47.44;101230.52;1601685;88;20106;-80
2021/06/10 10:48:47;;;;;;;;;;;;;;;25.07;47.65;101222.20;1600036;87;20171;-80
2021/06/10 10:51:34;;;;;;;;;;;;;;;25.17;47.42;101218.47;1606883;88;20216;-80
2021/06/10 10:54:01;;;;;;;;;;;;;;;25.19;47.18;101218.36;1613960;87;20178;-80
2021/06/10 10:56:41;;;;;;;;;;;;;;;25.23;47.10;101215.89;1597315;88;20523;-80
2021/06/10 10:59:17;;;;;;;;;;;;;;;25.17;46.83;101223.77;1608911;88;20739;-80
2021/06/10 11:02:04;;;;;;;;;;;;;;;25.11;47.03;101216.23;1596221;88;20185;-80
2021/06/10 11:04:54;;;;;;;;;;;;;;;25.14;47.08;101205.44;1595796;88;20529;-80
2021/06/10 11:07:39;;;;;;;;;;;;;;;25.16;46.90;101218.57;1607483;88;20655;-80
2021/06/10 11:10:11;;;;;;;;;;;;;;;25.13;46.49;101213.01;1603974;88;20186;-81
2021/06/10 11:12:43;;;;;;;;;;;;;;;25.06;46.47;101212.57;1587953;88;20660;-80
2021/06/10 11:15:22;;;;;;;;;;;;;;;25.08;46.59;101207.17;1600057;87;20497;-80
2021/06/10 11:17:46;;;;;;;;;;;;;;;25.16;46.58;101205.34;1585459;88;20195;-80
2021/06/10 11:20:15;;;;;;;;;;;;;;;25.18;46.40;101208.73;1604239;88;20199;-80
2021/06/10 11:22:49;;;;;;;;;;;;;;;25.19;46.48;101209.95;1626254;88;20234;-80
2021/06/10 11:25:29;;;;;;;;;;;;;;;25.22;46.58;101199.16;1622394;87;20762;-80
2021/06/10 11:27:59;;;;;;;;;;;;;;;25.28;46.24;101201.39;1593930;86;20858;-80
2021/06/10 11:30:27;;;;;;;;;;;;;;;25.38;46.29;101196.31;1609230;87;20222;-80
2021/06/10 11:33:10;;;;;;;;;;;;;;;25.36;45.96;101192.92;1612767;88;20114;-80
2021/06/10 11:35:48;;;;;;;;;;;;;;;25.33;45.78;101193.13;1595344;88;20104;-80
2021/06/10 11:38:18;;;;;;;;;;;;;;;25.23;45.73;101184.12;1602502;88;20117;-81
2021/06/10 11:40:47;;;;;;;;;;;;;;;25.13;45.78;101183.89;1609242;88;20100;-80
2021/06/10 11:43:15;;;;;;;;;;;;;;;25.10;45.75;101170.02;1606689;87;20094;-80
2021/06/10 11:45:42;;;;;;;;;;;;;;;25.18;45.71;101167.23;1613749;88;20115;-80
2021/06/10 11:48:09;;;;;;;;;;;;;;;25.26;45.66;101169.35;1604632;87;20113;-80
2021/06/10 11:50:39;;;;;;;;;;;;;;;25.35;45.61;101174.02;1611061;87;20116;-80
2021/06/10 11:53:17;;;;;;;;;;;;;;;25.45;45.75;101168.45;1611811;88;20870;-80
2021/06/10 11:55:39;;;;;;;;;;;;;;;25.61;45.72;101162.43;1617812;88;20434;-80
2021/06/10 11:58:07;;;;;;;;;;;;;;;25.74;45.33;101165.10;1601284;88;20447;-80
2021/06/10 12:00:37;;;;;;;;;;;;;;;25.82;45.36;101164.56;1611035;88;20584;-80
2021/06/10 12:03:05;;;;;;;;;;;;;;;25.96;45.29;101160.45;1603317;88;20139;-80
2021/06/10 12:05:33;;;;;;;;;;;;;;;26.06;45.15;101165.42;1626760;88;20133;-80
2021/06/10 12:08:12;;;;;;;;;;;;;;;26.11;44.94;101167.75;1588838;88;20182;-80
2021/06/10 12:10:39;;;;;;;;;;;;;;;26.09;44.77;101165.69;1609479;88;20127;-80
2021/06/10 12:13:06;;;;;;;;;;;;;;;26.02;44.77;101157.33;1603158;88;20714;-80
2021/06/10 12:15:39;;;;;;;;;;;;;;;25.97;44.62;101157.69;1600754;88;20415;-80
2021/06/10 12:18:16;;;;;;;;;;;;;;;25.92;44.78;101157.65;1596580;88;20718;-80
2021/06/10 12:20:44;;;;;;;;;;;;;;;25.91;44.72;101143.55;1611274;88;20131;-80
2021/06/10 12:23:15;;;;;;;;;;;;;;;25.89;44.59;101143.30;1606806;88;20438;-80
2021/06/10 12:25:43;;;;;;;;;;;;;;;25.93;44.71;101146.09;1596582;88;20144;-80
2021/06/10 12:28:11;;;;;;;;;;;;;;;26.04;44.70;101145.66;1605542;88;20569;-80
2021/06/10 12:30:39;;;;;;;;;;;;;;;26.14;44.61;101141.86;1595987;88;20246;-80
2021/06/10 12:33:19;;;;;;;;;;;;;;;26.20;44.63;101139.25;1611096;88;20968;-80
2021/06/10 12:35:47;;;;;;;;;;;;;;;26.33;44.51;101139.59;1605219;87;20486;-80
2021/06/10 12:38:16;;;;;;;;;;;;;;;26.34;44.09;101137.79;1610157;88;20348;-80
2021/06/10 12:40:44;;;;;;;;;;;;;;;26.37;44.16;101130.45;1609584;88;20205;-80
2021/06/10 12:43:15;;;;;;;;;;;;;;;26.46;44.10;101129.41;1599473;88;20624;-80